El Paso, TX (88524)

6:41 AM MDT on August 28, 2016 (GMT -0600)
Park Foothills | | Change Station

Elev 4039 ft 31.85 °N, 106.45 °W | Updated 1 second ago

Scattered Clouds
Scattered Clouds
66.0 °F
Feels Like 66.0 °F
N
4.0
Wind Variable Wind from West
Gusts 4.0 mph

Today
High -- | Low -- °F
--% Chance of Precip.
Yesterday
High -- | Low -- °F
Precip. -- in
Pressure 29.92 in
Visibility 10.0 miles
Clouds Few 8000 ft
Scattered Clouds 10000 ft
Dew Point 59 °F
Humidity 79%
Rainfall 0.00 in
Snow Depth Not available.
6:39 AM 7:33 PM
Waning Crescent, 16% visible
METAR KELP 281151Z 00000KT 10SM FEW080 SCT100 19/17 A3013 RMK AO2 SLP131 70033 T01940167 10217 20194 53006
Pressure 29.92 in
Visibility 10.0 miles
Clouds Few 8000 ft
Scattered Clouds 10000 ft
Dew Point 59 °F
Humidity 79%
Rainfall 0.00 in
Snow Depth Not available.
6:39 AM 7:33 PM
Waning Crescent, 16% visible
METAR KELP 281151Z 00000KT 10SM FEW080 SCT100 19/17 A3013 RMK AO2 SLP131 70033 T01940167 10217 20194 53006

10-Day Weather Forecast

Almanac

Astronomy

Aug. 28, 2016 Rise Set
Actual Time
Civil Twilight
Nautical Twilight
Astronomical Twilight
Moon
Length of Visible Light
Length of Day
Tomorrow will be .
, % of the Moon is Illuminated

Today's Extremes

State Highs State Lows

Community

WunderPhotos

Upload Photos

1,935,559 photos uploaded!

WunderBlog® & News

Nearby

Air Quality

  Air Quality AQ Index Pollutant
Not available.

Snow Depth

Station Depth Elevation

Earthquake Activity

City Distance Mag. Time & Date
Minimum magnitude displayed is 2.5.

Coastal Water Temperatures

Place Temperature

Stations

Nearby Weather Stations

Station Location Temp. Windchill Dew Point Humidity Wind Precip. Elev Updated Type
                   

Watches & Warnings

There are currently no watches in effect.